sensor_id;sensor_type;location;lat;lon;timestamp;P1;durP1;ratioP1;P2;durP2;ratioP2
45402;SDS011;47427;51.976;5.326;2023-02-23T00:03:17;138.90;;;72.70;;
45402;SDS011;47427;51.976;5.326;2023-02-23T00:06:57;142.02;;;72.32;;
45402;SDS011;47427;51.976;5.326;2023-02-23T00:10:24;132.00;;;70.10;;
45402;SDS011;47427;51.976;5.326;2023-02-23T00:14:14;124.45;;;69.75;;
45402;SDS011;47427;51.976;5.326;2023-02-23T00:18:01;142.02;;;71.45;;
45402;SDS011;47427;51.976;5.326;2023-02-23T00:21:26;135.32;;;71.75;;
45402;SDS011;47427;51.976;5.326;2023-02-23T00:24:52;133.55;;;70.03;;
45402;SDS011;47427;51.976;5.326;2023-02-23T00:28:27;139.05;;;72.60;;
45402;SDS011;47427;51.976;5.326;2023-02-23T00:31:54;144.68;;;72.35;;
45402;SDS011;47427;51.976;5.326;2023-02-23T00:35:34;152.05;;;73.50;;
45402;SDS011;47427;51.976;5.326;2023-02-23T00:39:17;134.60;;;71.90;;
45402;SDS011;47427;51.976;5.326;2023-02-23T00:42:46;141.73;;;74.75;;
45402;SDS011;47427;51.976;5.326;2023-02-23T00:46:31;131.05;;;70.07;;
45402;SDS011;47427;51.976;5.326;2023-02-23T00:50:26;144.85;;;77.07;;
45402;SDS011;47427;51.976;5.326;2023-02-23T00:57:41;127.53;;;68.22;;
45402;SDS011;47427;51.976;5.326;2023-02-23T01:01:05;128.13;;;71.40;;
45402;SDS011;47427;51.976;5.326;2023-02-23T01:04:35;169.65;;;76.88;;
45402;SDS011;47427;51.976;5.326;2023-02-23T01:11:53;132.57;;;70.22;;
45402;SDS011;47427;51.976;5.326;2023-02-23T01:15:30;133.77;;;70.25;;
45402;SDS011;47427;51.976;5.326;2023-02-23T01:18:55;134.40;;;68.78;;
45402;SDS011;47427;51.976;5.326;2023-02-23T01:22:25;125.65;;;69.25;;
45402;SDS011;47427;51.976;5.326;2023-02-23T01:25:56;131.13;;;70.00;;
45402;SDS011;47427;51.976;5.326;2023-02-23T01:29:22;118.68;;;63.65;;
45402;SDS011;47427;51.976;5.326;2023-02-23T01:33:16;129.70;;;68.22;;
45402;SDS011;47427;51.976;5.326;2023-02-23T01:36:44;115.90;;;65.97;;
45402;SDS011;47427;51.976;5.326;2023-02-23T01:40:17;128.43;;;69.75;;
45402;SDS011;47427;51.976;5.326;2023-02-23T01:47:52;134.25;;;67.30;;
45402;SDS011;47427;51.976;5.326;2023-02-23T01:51:46;120.97;;;66.15;;
45402;SDS011;47427;51.976;5.326;2023-02-23T01:55:23;129.15;;;68.15;;
45402;SDS011;47427;51.976;5.326;2023-02-23T01:58:55;128.70;;;66.75;;
45402;SDS011;47427;51.976;5.326;2023-02-23T02:02:23;123.97;;;67.72;;
45402;SDS011;47427;51.976;5.326;2023-02-23T02:05:55;118.18;;;67.25;;
45402;SDS011;47427;51.976;5.326;2023-02-23T02:13:43;124.95;;;67.07;;
45402;SDS011;47427;51.976;5.326;2023-02-23T02:20:49;142.23;;;71.32;;
45402;SDS011;47427;51.976;5.326;2023-02-23T02:41:14;140.48;;;73.10;;
45402;SDS011;47427;51.976;5.326;2023-02-23T02:48:59;131.25;;;68.55;;
45402;SDS011;47427;51.976;5.326;2023-02-23T02:52:43;118.95;;;64.30;;
45402;SDS011;47427;51.976;5.326;2023-02-23T02:56:17;134.77;;;72.20;;
45402;SDS011;47427;51.976;5.326;2023-02-23T02:59:46;150.27;;;70.22;;
45402;SDS011;47427;51.976;5.326;2023-02-23T03:03:39;157.68;;;74.53;;
45402;SDS011;47427;51.976;5.326;2023-02-23T03:11:39;150.23;;;70.57;;
45402;SDS011;47427;51.976;5.326;2023-02-23T03:29:04;163.30;;;72.78;;
45402;SDS011;47427;51.976;5.326;2023-02-23T03:33:09;207.05;;;84.40;;
45402;SDS011;47427;51.976;5.326;2023-02-23T03:37:25;152.70;;;73.78;;
45402;SDS011;47427;51.976;5.326;2023-02-23T03:41:12;171.00;;;74.57;;
45402;SDS011;47427;51.976;5.326;2023-02-23T03:45:12;157.70;;;73.50;;
45402;SDS011;47427;51.976;5.326;2023-02-23T03:49:03;177.02;;;77.07;;
45402;SDS011;47427;51.976;5.326;2023-02-23T03:52:56;132.75;;;66.97;;
45402;SDS011;47427;51.976;5.326;2023-02-23T03:56:43;133.85;;;68.18;;
45402;SDS011;47427;51.976;5.326;2023-02-23T04:00:31;135.23;;;69.00;;
45402;SDS011;47427;51.976;5.326;2023-02-23T04:04:24;142.93;;;72.43;;
45402;SDS011;47427;51.976;5.326;2023-02-23T04:08:11;144.23;;;70.50;;
45402;SDS011;47427;51.976;5.326;2023-02-23T04:12:26;128.48;;;67.95;;
45402;SDS011;47427;51.976;5.326;2023-02-23T04:16:33;148.65;;;68.75;;
45402;SDS011;47427;51.976;5.326;2023-02-23T04:19:58;153.10;;;74.97;;
45402;SDS011;47427;51.976;5.326;2023-02-23T04:23:34;147.98;;;70.88;;
45402;SDS011;47427;51.976;5.326;2023-02-23T04:26:57;217.80;;;84.55;;
45402;SDS011;47427;51.976;5.326;2023-02-23T04:30:20;210.38;;;82.60;;
45402;SDS011;47427;51.976;5.326;2023-02-23T04:33:44;139.68;;;68.90;;
45402;SDS011;47427;51.976;5.326;2023-02-23T04:37:24;133.15;;;68.57;;
45402;SDS011;47427;51.976;5.326;2023-02-23T04:40:46;152.60;;;70.97;;
45402;SDS011;47427;51.976;5.326;2023-02-23T04:44:13;165.02;;;71.15;;
45402;SDS011;47427;51.976;5.326;2023-02-23T04:47:39;156.95;;;74.03;;
45402;SDS011;47427;51.976;5.326;2023-02-23T04:51:06;167.32;;;74.25;;
45402;SDS011;47427;51.976;5.326;2023-02-23T04:58:09;148.38;;;69.97;;
45402;SDS011;47427;51.976;5.326;2023-02-23T05:01:38;177.50;;;78.80;;
45402;SDS011;47427;51.976;5.326;2023-02-23T05:05:06;175.48;;;78.85;;
45402;SDS011;47427;51.976;5.326;2023-02-23T05:08:38;176.30;;;76.57;;
45402;SDS011;47427;51.976;5.326;2023-02-23T05:12:12;167.48;;;76.13;;
45402;SDS011;47427;51.976;5.326;2023-02-23T05:15:34;137.45;;;68.82;;
45402;SDS011;47427;51.976;5.326;2023-02-23T05:18:58;208.65;;;84.88;;
45402;SDS011;47427;51.976;5.326;2023-02-23T05:22:34;139.70;;;70.72;;
45402;SDS011;47427;51.976;5.326;2023-02-23T05:26:04;193.15;;;78.90;;
45402;SDS011;47427;51.976;5.326;2023-02-23T05:29:35;177.93;;;74.72;;
45402;SDS011;47427;51.976;5.326;2023-02-23T05:33:14;182.38;;;74.72;;
45402;SDS011;47427;51.976;5.326;2023-02-23T05:36:51;203.57;;;76.40;;
45402;SDS011;47427;51.976;5.326;2023-02-23T05:40:16;143.13;;;67.65;;
45402;SDS011;47427;51.976;5.326;2023-02-23T05:43:40;241.18;;;84.50;;
45402;SDS011;47427;51.976;5.326;2023-02-23T05:47:07;124.20;;;61.58;;
45402;SDS011;47427;51.976;5.326;2023-02-23T05:50:34;146.88;;;70.78;;
45402;SDS011;47427;51.976;5.326;2023-02-23T05:54:04;154.05;;;71.97;;
45402;SDS011;47427;51.976;5.326;2023-02-23T05:57:31;190.13;;;71.95;;
45402;SDS011;47427;51.976;5.326;2023-02-23T06:00:53;320.08;;;93.82;;
45402;SDS011;47427;51.976;5.326;2023-02-23T06:04:15;169.40;;;70.35;;
45402;SDS011;47427;51.976;5.326;2023-02-23T06:07:48;190.38;;;73.05;;
45402;SDS011;47427;51.976;5.326;2023-02-23T06:11:18;136.63;;;67.20;;
45402;SDS011;47427;51.976;5.326;2023-02-23T06:14:40;113.72;;;60.65;;
45402;SDS011;47427;51.976;5.326;2023-02-23T06:18:13;178.15;;;72.88;;
45402;SDS011;47427;51.976;5.326;2023-02-23T06:21:55;218.88;;;76.90;;
45402;SDS011;47427;51.976;5.326;2023-02-23T06:25:29;151.00;;;69.95;;
45402;SDS011;47427;51.976;5.326;2023-02-23T06:28:57;118.18;;;61.95;;
45402;SDS011;47427;51.976;5.326;2023-02-23T06:32:32;148.75;;;66.75;;
45402;SDS011;47427;51.976;5.326;2023-02-23T06:36:03;118.20;;;61.60;;
45402;SDS011;47427;51.976;5.326;2023-02-23T06:39:31;115.18;;;59.53;;
45402;SDS011;47427;51.976;5.326;2023-02-23T06:43:00;136.50;;;64.00;;
45402;SDS011;47427;51.976;5.326;2023-02-23T06:46:26;148.45;;;67.85;;
45402;SDS011;47427;51.976;5.326;2023-02-23T06:49:48;118.13;;;61.63;;
45402;SDS011;47427;51.976;5.326;2023-02-23T06:53:31;136.57;;;65.20;;
45402;SDS011;47427;51.976;5.326;2023-02-23T06:57:01;150.10;;;69.72;;
45402;SDS011;47427;51.976;5.326;2023-02-23T07:00:31;152.30;;;67.72;;
45402;SDS011;47427;51.976;5.326;2023-02-23T07:04:36;127.47;;;63.38;;
45402;SDS011;47427;51.976;5.326;2023-02-23T07:08:17;134.73;;;65.97;;
45402;SDS011;47427;51.976;5.326;2023-02-23T07:11:49;123.82;;;62.97;;
45402;SDS011;47427;51.976;5.326;2023-02-23T07:15:16;134.60;;;66.15;;
45402;SDS011;47427;51.976;5.326;2023-02-23T07:18:54;123.85;;;62.25;;
45402;SDS011;47427;51.976;5.326;2023-02-23T07:22:16;134.60;;;66.68;;
45402;SDS011;47427;51.976;5.326;2023-02-23T07:25:45;139.95;;;64.78;;
45402;SDS011;47427;51.976;5.326;2023-02-23T07:29:13;123.22;;;62.15;;
45402;SDS011;47427;51.976;5.326;2023-02-23T07:32:36;125.03;;;63.15;;
45402;SDS011;47427;51.976;5.326;2023-02-23T07:35:59;147.52;;;65.72;;
45402;SDS011;47427;51.976;5.326;2023-02-23T07:39:21;123.95;;;63.80;;
45402;SDS011;47427;51.976;5.326;2023-02-23T07:42:50;134.43;;;63.88;;
45402;SDS011;47427;51.976;5.326;2023-02-23T07:46:22;166.30;;;68.78;;
45402;SDS011;47427;51.976;5.326;2023-02-23T07:49:53;139.02;;;66.45;;
45402;SDS011;47427;51.976;5.326;2023-02-23T07:53:14;144.02;;;67.50;;
45402;SDS011;47427;51.976;5.326;2023-02-23T07:56:36;149.05;;;68.20;;
45402;SDS011;47427;51.976;5.326;2023-02-23T07:59:57;176.93;;;70.15;;
45402;SDS011;47427;51.976;5.326;2023-02-23T08:07:15;124.53;;;60.75;;
45402;SDS011;47427;51.976;5.326;2023-02-23T08:10:48;181.35;;;68.30;;
45402;SDS011;47427;51.976;5.326;2023-02-23T08:14:24;135.10;;;64.97;;
45402;SDS011;47427;51.976;5.326;2023-02-23T08:17:45;123.60;;;61.53;;
45402;SDS011;47427;51.976;5.326;2023-02-23T08:21:07;141.50;;;64.25;;
45402;SDS011;47427;51.976;5.326;2023-02-23T08:24:38;145.02;;;64.32;;
45402;SDS011;47427;51.976;5.326;2023-02-23T08:28:03;123.30;;;60.63;;
45402;SDS011;47427;51.976;5.326;2023-02-23T08:31:48;115.55;;;55.50;;
45402;SDS011;47427;51.976;5.326;2023-02-23T08:35:15;112.65;;;53.90;;
45402;SDS011;47427;51.976;5.326;2023-02-23T08:38:44;132.30;;;60.35;;
45402;SDS011;47427;51.976;5.326;2023-02-23T08:42:06;118.85;;;59.10;;
45402;SDS011;47427;51.976;5.326;2023-02-23T08:45:30;105.13;;;56.47;;
45402;SDS011;47427;51.976;5.326;2023-02-23T08:48:54;99.30;;;54.85;;
45402;SDS011;47427;51.976;5.326;2023-02-23T08:52:20;132.15;;;60.33;;
45402;SDS011;47427;51.976;5.326;2023-02-23T08:56:00;112.68;;;57.70;;
45402;SDS011;47427;51.976;5.326;2023-02-23T08:59:25;114.82;;;59.85;;
45402;SDS011;47427;51.976;5.326;2023-02-23T09:02:58;110.72;;;56.65;;
45402;SDS011;47427;51.976;5.326;2023-02-23T09:06:33;108.50;;;57.00;;
45402;SDS011;47427;51.976;5.326;2023-02-23T09:10:19;116.97;;;60.80;;
45402;SDS011;47427;51.976;5.326;2023-02-23T09:14:01;106.07;;;53.55;;
45402;SDS011;47427;51.976;5.326;2023-02-23T09:17:24;114.85;;;57.63;;
45402;SDS011;47427;51.976;5.326;2023-02-23T09:21:14;132.55;;;61.90;;
45402;SDS011;47427;51.976;5.326;2023-02-23T09:24:41;112.78;;;58.33;;
45402;SDS011;47427;51.976;5.326;2023-02-23T09:28:25;108.93;;;56.17;;
45402;SDS011;47427;51.976;5.326;2023-02-23T09:31:52;104.90;;;55.30;;
45402;SDS011;47427;51.976;5.326;2023-02-23T09:35:38;97.68;;;52.65;;
45402;SDS011;47427;51.976;5.326;2023-02-23T09:39:01;97.45;;;53.17;;
45402;SDS011;47427;51.976;5.326;2023-02-23T09:42:55;91.50;;;51.00;;
45402;SDS011;47427;51.976;5.326;2023-02-23T09:50:13;88.68;;;49.28;;
45402;SDS011;47427;51.976;5.326;2023-02-23T09:53:44;93.13;;;50.10;;
45402;SDS011;47427;51.976;5.326;2023-02-23T09:57:20;79.28;;;46.45;;
45402;SDS011;47427;51.976;5.326;2023-02-23T10:04:50;71.60;;;43.22;;
45402;SDS011;47427;51.976;5.326;2023-02-23T10:08:41;70.38;;;41.92;;
45402;SDS011;47427;51.976;5.326;2023-02-23T10:12:21;65.43;;;40.60;;
45402;SDS011;47427;51.976;5.326;2023-02-23T10:16:23;65.57;;;40.05;;
45402;SDS011;47427;51.976;5.326;2023-02-23T10:27:47;67.03;;;40.03;;
45402;SDS011;47427;51.976;5.326;2023-02-23T10:34:39;72.22;;;41.80;;
45402;SDS011;47427;51.976;5.326;2023-02-23T10:38:04;65.43;;;38.28;;
45402;SDS011;47427;51.976;5.326;2023-02-23T10:41:49;69.75;;;40.58;;
45402;SDS011;47427;51.976;5.326;2023-02-23T10:45:12;58.70;;;36.97;;
45402;SDS011;47427;51.976;5.326;2023-02-23T10:48:49;62.40;;;37.00;;
45402;SDS011;47427;51.976;5.326;2023-02-23T10:52:28;56.38;;;35.85;;
45402;SDS011;47427;51.976;5.326;2023-02-23T10:59:36;51.65;;;31.88;;
45402;SDS011;47427;51.976;5.326;2023-02-23T11:03:02;50.27;;;30.07;;
45402;SDS011;47427;51.976;5.326;2023-02-23T11:06:41;54.25;;;33.72;;
45402;SDS011;47427;51.976;5.326;2023-02-23T11:10:23;43.35;;;30.63;;
45402;SDS011;47427;51.976;5.326;2023-02-23T11:13:48;44.75;;;28.52;;
45402;SDS011;47427;51.976;5.326;2023-02-23T11:21:01;38.50;;;26.75;;
45402;SDS011;47427;51.976;5.326;2023-02-23T11:24:41;35.00;;;23.27;;
45402;SDS011;47427;51.976;5.326;2023-02-23T11:28:18;35.35;;;23.80;;
45402;SDS011;47427;51.976;5.326;2023-02-23T11:32:13;31.63;;;21.05;;
45402;SDS011;47427;51.976;5.326;2023-02-23T11:40:17;35.90;;;23.98;;
45402;SDS011;47427;51.976;5.326;2023-02-23T11:44:00;39.92;;;26.92;;
45402;SDS011;47427;51.976;5.326;2023-02-23T11:47:24;40.50;;;26.33;;
45402;SDS011;47427;51.976;5.326;2023-02-23T11:50:48;43.97;;;26.98;;
45402;SDS011;47427;51.976;5.326;2023-02-23T11:54:21;35.85;;;24.63;;
45402;SDS011;47427;51.976;5.326;2023-02-23T12:02:44;22.85;;;17.73;;
45402;SDS011;47427;51.976;5.326;2023-02-23T12:06:12;21.48;;;15.65;;
45402;SDS011;47427;51.976;5.326;2023-02-23T12:13:47;20.98;;;16.67;;
45402;SDS011;47427;51.976;5.326;2023-02-23T12:18:02;20.20;;;15.80;;
45402;SDS011;47427;51.976;5.326;2023-02-23T12:21:57;20.42;;;17.20;;
45402;SDS011;47427;51.976;5.326;2023-02-23T12:29:19;27.08;;;17.45;;
45402;SDS011;47427;51.976;5.326;2023-02-23T12:37:00;33.28;;;21.50;;
45402;SDS011;47427;51.976;5.326;2023-02-23T12:41:12;32.60;;;22.23;;
45402;SDS011;47427;51.976;5.326;2023-02-23T12:45:02;25.30;;;18.17;;
45402;SDS011;47427;51.976;5.326;2023-02-23T12:52:30;28.60;;;18.80;;
45402;SDS011;47427;51.976;5.326;2023-02-23T13:04:11;33.58;;;21.58;;
45402;SDS011;47427;51.976;5.326;2023-02-23T13:16:07;36.47;;;21.15;;
45402;SDS011;47427;51.976;5.326;2023-02-23T13:24:26;28.65;;;19.38;;
45402;SDS011;47427;51.976;5.326;2023-02-23T13:28:32;28.23;;;18.33;;
45402;SDS011;47427;51.976;5.326;2023-02-23T13:32:39;31.42;;;18.25;;
45402;SDS011;47427;51.976;5.326;2023-02-23T13:36:09;25.90;;;17.25;;
45402;SDS011;47427;51.976;5.326;2023-02-23T13:43:48;28.85;;;20.20;;
45402;SDS011;47427;51.976;5.326;2023-02-23T13:47:46;21.95;;;16.73;;
45402;SDS011;47427;51.976;5.326;2023-02-23T13:51:39;23.15;;;16.17;;
45402;SDS011;47427;51.976;5.326;2023-02-23T13:55:57;22.02;;;16.02;;
45402;SDS011;47427;51.976;5.326;2023-02-23T13:59:40;22.95;;;16.05;;
45402;SDS011;47427;51.976;5.326;2023-02-23T14:03:50;23.85;;;15.73;;
45402;SDS011;47427;51.976;5.326;2023-02-23T14:07:25;23.83;;;14.63;;
45402;SDS011;47427;51.976;5.326;2023-02-23T14:11:04;24.05;;;13.55;;
45402;SDS011;47427;51.976;5.326;2023-02-23T14:21:50;24.10;;;13.77;;
45402;SDS011;47427;51.976;5.326;2023-02-23T14:29:16;24.00;;;14.93;;
45402;SDS011;47427;51.976;5.326;2023-02-23T14:32:59;22.48;;;15.02;;
45402;SDS011;47427;51.976;5.326;2023-02-23T14:36:35;20.92;;;14.50;;
45402;SDS011;47427;51.976;5.326;2023-02-23T14:40:17;29.92;;;15.75;;
45402;SDS011;47427;51.976;5.326;2023-02-23T14:43:53;26.52;;;14.95;;
45402;SDS011;47427;51.976;5.326;2023-02-23T14:47:39;25.77;;;16.23;;
45402;SDS011;47427;51.976;5.326;2023-02-23T14:51:27;24.55;;;14.80;;
45402;SDS011;47427;51.976;5.326;2023-02-23T14:55:38;28.30;;;17.83;;
45402;SDS011;47427;51.976;5.326;2023-02-23T14:59:12;30.98;;;18.10;;
45402;SDS011;47427;51.976;5.326;2023-02-23T15:02:56;30.05;;;17.83;;
45402;SDS011;47427;51.976;5.326;2023-02-23T15:06:35;30.63;;;15.48;;
45402;SDS011;47427;51.976;5.326;2023-02-23T15:10:08;25.08;;;13.88;;
45402;SDS011;47427;51.976;5.326;2023-02-23T15:13:48;22.35;;;14.45;;
45402;SDS011;47427;51.976;5.326;2023-02-23T15:17:21;23.92;;;15.95;;
45402;SDS011;47427;51.976;5.326;2023-02-23T15:20:56;23.40;;;14.43;;
45402;SDS011;47427;51.976;5.326;2023-02-23T15:24:43;22.10;;;15.15;;
45402;SDS011;47427;51.976;5.326;2023-02-23T15:28:33;27.52;;;16.98;;
45402;SDS011;47427;51.976;5.326;2023-02-23T15:32:11;29.65;;;17.83;;
45402;SDS011;47427;51.976;5.326;2023-02-23T15:35:50;30.15;;;17.42;;
45402;SDS011;47427;51.976;5.326;2023-02-23T15:39:32;30.20;;;16.23;;
45402;SDS011;47427;51.976;5.326;2023-02-23T15:43:13;31.30;;;18.15;;
45402;SDS011;47427;51.976;5.326;2023-02-23T15:46:34;33.08;;;19.08;;
45402;SDS011;47427;51.976;5.326;2023-02-23T15:50:23;30.30;;;18.45;;
45402;SDS011;47427;51.976;5.326;2023-02-23T15:54:20;35.50;;;18.77;;
45402;SDS011;47427;51.976;5.326;2023-02-23T15:58:37;30.27;;;19.13;;
45402;SDS011;47427;51.976;5.326;2023-02-23T16:02:28;32.83;;;19.83;;
45402;SDS011;47427;51.976;5.326;2023-02-23T16:06:15;34.10;;;17.20;;
45402;SDS011;47427;51.976;5.326;2023-02-23T16:10:22;34.92;;;14.90;;
45402;SDS011;47427;51.976;5.326;2023-02-23T16:13:52;26.40;;;12.00;;
45402;SDS011;47427;51.976;5.326;2023-02-23T16:21:16;28.25;;;11.98;;
45402;SDS011;47427;51.976;5.326;2023-02-23T16:24:43;33.50;;;10.82;;
45402;SDS011;47427;51.976;5.326;2023-02-23T16:28:26;26.63;;;9.60;;
45402;SDS011;47427;51.976;5.326;2023-02-23T16:32:00;22.17;;;7.00;;
45402;SDS011;47427;51.976;5.326;2023-02-23T16:35:32;17.30;;;6.03;;
45402;SDS011;47427;51.976;5.326;2023-02-23T16:39:16;14.40;;;6.50;;
45402;SDS011;47427;51.976;5.326;2023-02-23T16:42:47;16.63;;;6.50;;
45402;SDS011;47427;51.976;5.326;2023-02-23T16:46:29;16.17;;;6.43;;
45402;SDS011;47427;51.976;5.326;2023-02-23T16:57:21;26.85;;;8.00;;
45402;SDS011;47427;51.976;5.326;2023-02-23T17:00:51;27.40;;;8.60;;
45402;SDS011;47427;51.976;5.326;2023-02-23T17:04:40;33.33;;;9.25;;
45402;SDS011;47427;51.976;5.326;2023-02-23T17:08:09;36.35;;;9.57;;
45402;SDS011;47427;51.976;5.326;2023-02-23T17:11:42;34.10;;;9.07;;
45402;SDS011;47427;51.976;5.326;2023-02-23T17:15:42;28.23;;;9.45;;
45402;SDS011;47427;51.976;5.326;2023-02-23T17:19:38;45.65;;;10.20;;
45402;SDS011;47427;51.976;5.326;2023-02-23T17:23:02;29.73;;;11.05;;
45402;SDS011;47427;51.976;5.326;2023-02-23T17:26:30;34.58;;;9.77;;
45402;SDS011;47427;51.976;5.326;2023-02-23T17:29:52;45.20;;;11.55;;
45402;SDS011;47427;51.976;5.326;2023-02-23T17:33:17;39.13;;;10.27;;
45402;SDS011;47427;51.976;5.326;2023-02-23T17:36:44;38.60;;;10.05;;
45402;SDS011;47427;51.976;5.326;2023-02-23T17:40:22;33.83;;;9.50;;
45402;SDS011;47427;51.976;5.326;2023-02-23T17:44:13;42.80;;;10.20;;
45402;SDS011;47427;51.976;5.326;2023-02-23T17:47:46;35.35;;;11.38;;
45402;SDS011;47427;51.976;5.326;2023-02-23T17:51:09;43.47;;;9.75;;
45402;SDS011;47427;51.976;5.326;2023-02-23T17:54:37;33.17;;;9.00;;
45402;SDS011;47427;51.976;5.326;2023-02-23T17:58:05;39.22;;;9.57;;
45402;SDS011;47427;51.976;5.326;2023-02-23T18:01:32;52.70;;;12.02;;
45402;SDS011;47427;51.976;5.326;2023-02-23T18:04:57;45.53;;;10.30;;
45402;SDS011;47427;51.976;5.326;2023-02-23T18:08:26;35.42;;;8.70;;
45402;SDS011;47427;51.976;5.326;2023-02-23T18:12:11;52.40;;;9.82;;
45402;SDS011;47427;51.976;5.326;2023-02-23T18:15:46;39.67;;;10.30;;
45402;SDS011;47427;51.976;5.326;2023-02-23T18:19:23;32.72;;;8.95;;
45402;SDS011;47427;51.976;5.326;2023-02-23T18:22:49;38.95;;;9.60;;
45402;SDS011;47427;51.976;5.326;2023-02-23T18:26:19;33.17;;;8.18;;
45402;SDS011;47427;51.976;5.326;2023-02-23T18:29:59;37.63;;;10.65;;
45402;SDS011;47427;51.976;5.326;2023-02-23T18:33:28;27.48;;;8.48;;
45402;SDS011;47427;51.976;5.326;2023-02-23T18:36:52;48.00;;;9.70;;
45402;SDS011;47427;51.976;5.326;2023-02-23T18:40:23;43.70;;;8.80;;
45402;SDS011;47427;51.976;5.326;2023-02-23T18:43:46;38.67;;;9.68;;
45402;SDS011;47427;51.976;5.326;2023-02-23T18:47:10;37.90;;;8.65;;
45402;SDS011;47427;51.976;5.326;2023-02-23T18:50:31;37.60;;;8.15;;
45402;SDS011;47427;51.976;5.326;2023-02-23T18:57:44;49.20;;;10.23;;
45402;SDS011;47427;51.976;5.326;2023-02-23T19:01:12;32.97;;;9.48;;
45402;SDS011;47427;51.976;5.326;2023-02-23T19:05:05;39.88;;;11.30;;
45402;SDS011;47427;51.976;5.326;2023-02-23T19:08:42;36.65;;;9.60;;
45402;SDS011;47427;51.976;5.326;2023-02-23T19:12:05;41.60;;;10.13;;
45402;SDS011;47427;51.976;5.326;2023-02-23T19:15:46;32.35;;;9.65;;
45402;SDS011;47427;51.976;5.326;2023-02-23T19:22:39;33.03;;;9.27;;
45402;SDS011;47427;51.976;5.326;2023-02-23T19:26:06;36.10;;;9.30;;
45402;SDS011;47427;51.976;5.326;2023-02-23T19:29:39;42.83;;;9.15;;
45402;SDS011;47427;51.976;5.326;2023-02-23T19:33:03;41.67;;;7.82;;
45402;SDS011;47427;51.976;5.326;2023-02-23T19:36:31;35.63;;;10.38;;
45402;SDS011;47427;51.976;5.326;2023-02-23T19:40:18;40.63;;;11.15;;
45402;SDS011;47427;51.976;5.326;2023-02-23T19:43:42;38.80;;;8.70;;
45402;SDS011;47427;51.976;5.326;2023-02-23T19:47:06;37.40;;;9.30;;
45402;SDS011;47427;51.976;5.326;2023-02-23T19:50:34;29.80;;;10.48;;
45402;SDS011;47427;51.976;5.326;2023-02-23T19:54:06;42.07;;;11.00;;
45402;SDS011;47427;51.976;5.326;2023-02-23T19:57:56;29.80;;;9.43;;
45402;SDS011;47427;51.976;5.326;2023-02-23T20:01:24;35.25;;;8.13;;
45402;SDS011;47427;51.976;5.326;2023-02-23T20:05:11;32.40;;;9.25;;
45402;SDS011;47427;51.976;5.326;2023-02-23T20:09:03;36.35;;;9.00;;
45402;SDS011;47427;51.976;5.326;2023-02-23T20:12:35;39.03;;;9.18;;
45402;SDS011;47427;51.976;5.326;2023-02-23T20:16:04;40.28;;;10.98;;
45402;SDS011;47427;51.976;5.326;2023-02-23T20:19:34;28.83;;;8.85;;
45402;SDS011;47427;51.976;5.326;2023-02-23T20:22:58;28.60;;;9.55;;
45402;SDS011;47427;51.976;5.326;2023-02-23T20:26:30;27.23;;;8.73;;
45402;SDS011;47427;51.976;5.326;2023-02-23T20:29:57;33.88;;;9.48;;
45402;SDS011;47427;51.976;5.326;2023-02-23T20:33:19;34.63;;;10.63;;
45402;SDS011;47427;51.976;5.326;2023-02-23T20:36:41;31.58;;;9.55;;
45402;SDS011;47427;51.976;5.326;2023-02-23T20:40:05;40.60;;;10.25;;
45402;SDS011;47427;51.976;5.326;2023-02-23T20:43:45;28.05;;;8.77;;
45402;SDS011;47427;51.976;5.326;2023-02-23T20:47:40;30.90;;;9.38;;
45402;SDS011;47427;51.976;5.326;2023-02-23T20:51:10;36.28;;;10.48;;
45402;SDS011;47427;51.976;5.326;2023-02-23T20:54:44;41.88;;;10.68;;
45402;SDS011;47427;51.976;5.326;2023-02-23T20:58:11;41.90;;;13.30;;
45402;SDS011;47427;51.976;5.326;2023-02-23T21:01:48;25.83;;;9.40;;
45402;SDS011;47427;51.976;5.326;2023-02-23T21:05:12;29.80;;;8.85;;
45402;SDS011;47427;51.976;5.326;2023-02-23T21:08:39;26.23;;;9.02;;
45402;SDS011;47427;51.976;5.326;2023-02-23T21:12:18;30.95;;;9.98;;
45402;SDS011;47427;51.976;5.326;2023-02-23T21:15:43;23.08;;;7.93;;
45402;SDS011;47427;51.976;5.326;2023-02-23T21:19:18;28.75;;;10.75;;
45402;SDS011;47427;51.976;5.326;2023-02-23T21:22:48;40.17;;;10.93;;
45402;SDS011;47427;51.976;5.326;2023-02-23T21:26:33;39.67;;;10.85;;
45402;SDS011;47427;51.976;5.326;2023-02-23T21:30:06;31.00;;;9.70;;
45402;SDS011;47427;51.976;5.326;2023-02-23T21:33:46;34.03;;;10.82;;
45402;SDS011;47427;51.976;5.326;2023-02-23T21:37:13;29.45;;;10.18;;
45402;SDS011;47427;51.976;5.326;2023-02-23T21:40:51;21.90;;;9.95;;
45402;SDS011;47427;51.976;5.326;2023-02-23T21:44:34;29.95;;;10.05;;
45402;SDS011;47427;51.976;5.326;2023-02-23T21:47:58;22.95;;;9.60;;
45402;SDS011;47427;51.976;5.326;2023-02-23T21:52:02;29.52;;;8.80;;
45402;SDS011;47427;51.976;5.326;2023-02-23T21:55:24;32.22;;;10.88;;
45402;SDS011;47427;51.976;5.326;2023-02-23T21:58:50;39.83;;;11.02;;
45402;SDS011;47427;51.976;5.326;2023-02-23T22:02:18;40.83;;;9.88;;
45402;SDS011;47427;51.976;5.326;2023-02-23T22:05:40;27.80;;;10.13;;
45402;SDS011;47427;51.976;5.326;2023-02-23T22:09:04;31.55;;;9.48;;
45402;SDS011;47427;51.976;5.326;2023-02-23T22:12:33;34.60;;;10.48;;
45402;SDS011;47427;51.976;5.326;2023-02-23T22:19:27;28.48;;;8.02;;
45402;SDS011;47427;51.976;5.326;2023-02-23T22:22:59;37.50;;;9.38;;
45402;SDS011;47427;51.976;5.326;2023-02-23T22:26:24;30.50;;;8.73;;
45402;SDS011;47427;51.976;5.326;2023-02-23T22:29:45;29.98;;;9.90;;
45402;SDS011;47427;51.976;5.326;2023-02-23T22:33:16;25.55;;;8.80;;
45402;SDS011;47427;51.976;5.326;2023-02-23T22:36:43;24.50;;;8.57;;
45402;SDS011;47427;51.976;5.326;2023-02-23T22:40:28;22.30;;;8.57;;
45402;SDS011;47427;51.976;5.326;2023-02-23T22:44:19;32.30;;;8.98;;
45402;SDS011;47427;51.976;5.326;2023-02-23T22:47:52;25.02;;;9.50;;
45402;SDS011;47427;51.976;5.326;2023-02-23T22:51:24;22.30;;;8.52;;
45402;SDS011;47427;51.976;5.326;2023-02-23T22:54:47;30.00;;;8.55;;
45402;SDS011;47427;51.976;5.326;2023-02-23T22:58:44;31.73;;;8.32;;
45402;SDS011;47427;51.976;5.326;2023-02-23T23:02:10;36.20;;;9.68;;
45402;SDS011;47427;51.976;5.326;2023-02-23T23:05:46;24.15;;;7.63;;
45402;SDS011;47427;51.976;5.326;2023-02-23T23:09:15;22.85;;;9.13;;
45402;SDS011;47427;51.976;5.326;2023-02-23T23:12:50;18.33;;;7.45;;
45402;SDS011;47427;51.976;5.326;2023-02-23T23:16:30;23.85;;;7.45;;
45402;SDS011;47427;51.976;5.326;2023-02-23T23:20:03;26.55;;;7.43;;
45402;SDS011;47427;51.976;5.326;2023-02-23T23:24:10;19.73;;;7.95;;
45402;SDS011;47427;51.976;5.326;2023-02-23T23:27:35;24.92;;;8.68;;
45402;SDS011;47427;51.976;5.326;2023-02-23T23:31:01;25.40;;;8.07;;
45402;SDS011;47427;51.976;5.326;2023-02-23T23:34:27;34.65;;;8.80;;
45402;SDS011;47427;51.976;5.326;2023-02-23T23:38:15;26.40;;;8.30;;
45402;SDS011;47427;51.976;5.326;2023-02-23T23:41:41;24.85;;;7.20;;
45402;SDS011;47427;51.976;5.326;2023-02-23T23:45:15;22.95;;;7.35;;
45402;SDS011;47427;51.976;5.326;2023-02-23T23:52:43;20.77;;;7.95;;
45402;SDS011;47427;51.976;5.326;2023-02-23T23:56:14;20.27;;;7.47;;